LFMH/EBU METAR and TAF weather

Enter ICAO airport designator
Station Type Date Time Source
LFMH METAR 2019/12/06 09:00 UTC NOAA

LFMH 060900Z AUTO 17001KT 9000 NSC 01/M01 Q1023 NOSIG


Station Type Date Time Source
LFMH Decoded METAR 2019/12/06 09:00 UTC NOAA

St-Etienne Boutheon, France (LFMH) 45-32N 004-18E 402M
Dec 06, 2019 - 04:00 AM EST / 2019.12.06 0900 UTC
Wind: from the S (170 degrees) at 1 MPH (1 KT):0
Visibility: 5 mile(s):0
Temperature: 33 F (1 C)
Dew Point: 30 F (-1 C)
Relative Humidity: 86%
Pressure (altimeter): 30.21 in. Hg (1023 hPa)
ob: LFMH 060900Z AUTO 17001KT 9000 NSC 01/M01 Q1023 NOSIG
cycle: 9

Station Type Date Time Source
LFMH TAF 2019/12/06 09:57 UTC NOAA

TAF TAF LFMH 060800Z 0609/0709 VRB02KT CAVOK
BECMG 0615/0618 14006KT PROB40
TEMPO 0701/0709 -RA BKN045

Example: see airport list